Time;durP1;ratioP1;P1;durP2;ratioP2;P2;SDS_P1;SDS_P2;PMS_P1;PMS_P2;Temp;Humidity;BMP_temperature;BMP_pressure;BME280_temperature;BME280_humidity;BME280_pressure;Samples;Min_cycle;Max_cycle;Signal;HPM_P1;HPM_P2
2022/04/15 00:00:12;;;;;;;16.75;13.90;;;;;;;;;;5054648;28;20505;-73
2022/04/15 00:02:39;;;;;;;22.30;16.20;;;;;;;;;;5054967;28;20512;-72
2022/04/15 00:07:50;;;;;;;20.08;17.98;;;;;;;;;;5055008;28;20641;-72
2022/04/15 00:10:16;;;;;;;17.58;15.25;;;;;;;;;;5054145;28;20206;-72
2022/04/15 00:12:42;;;;;;;17.25;15.40;;;;;;;;;;5054578;28;20194;-73
2022/04/15 00:15:09;;;;;;;24.40;15.63;;;;;;;;;;5054780;28;20174;-74
2022/04/15 00:17:35;;;;;;;18.77;15.27;;;;;;;;;;5054685;28;20260;-74
2022/04/15 00:20:01;;;;;;;18.23;14.20;;;;;;;;;;5054898;28;20277;-74
2022/04/15 00:22:27;;;;;;;17.43;13.63;;;;;;;;;;5054202;28;20442;-72
2022/04/15 00:24:52;;;;;;;20.33;13.53;;;;;;;;;;5054502;28;20411;-75
2022/04/15 00:27:18;;;;;;;19.83;14.43;;;;;;;;;;5054464;28;20754;-73
2022/04/15 00:29:44;;;;;;;16.37;12.70;;;;;;;;;;5054338;28;20859;-74
2022/04/15 00:32:10;;;;;;;16.70;13.67;;;;;;;;;;5053902;28;20432;-73
2022/04/15 00:34:36;;;;;;;18.43;12.57;;;;;;;;;;5054266;28;20464;-72
2022/04/15 00:37:02;;;;;;;19.30;12.53;;;;;;;;;;5054191;28;20465;-75
2022/04/15 00:39:29;;;;;;;18.42;12.50;;;;;;;;;;5054198;28;20419;-75
2022/04/15 00:41:57;;;;;;;15.43;11.98;;;;;;;;;;5053849;28;20215;-74
2022/04/15 00:44:23;;;;;;;14.30;12.18;;;;;;;;;;5054225;28;20179;-73
2022/04/15 00:46:49;;;;;;;18.23;12.20;;;;;;;;;;5053939;28;20189;-73
2022/04/15 00:49:14;;;;;;;16.87;12.20;;;;;;;;;;5054016;28;20576;-73
2022/04/15 00:51:41;;;;;;;17.90;12.13;;;;;;;;;;5053613;28;20435;-74
2022/04/15 00:54:11;;;;;;;22.98;13.73;;;;;;;;;;5053872;28;20405;-72
2022/04/15 00:56:37;;;;;;;21.63;13.00;;;;;;;;;;5053808;28;20176;-73
2022/04/15 00:59:04;;;;;;;16.60;13.20;;;;;;;;;;5053680;28;20171;-75
2022/04/15 01:01:30;;;;;;;18.80;12.63;;;;;;;;;;5053433;28;20196;-74
2022/04/15 01:03:57;;;;;;;18.85;13.95;;;;;;;;;;5054029;28;20222;-73
2022/04/15 01:06:23;;;;;;;21.42;13.88;;;;;;;;;;5053972;28;20631;-74
2022/04/15 01:08:51;;;;;;;19.33;14.30;;;;;;;;;;5053748;28;20177;-74
2022/04/15 01:11:19;;;;;;;20.52;14.05;;;;;;;;;;5053194;28;20219;-74
2022/04/15 01:13:45;;;;;;;20.85;15.77;;;;;;;;;;5053767;28;20169;-73
2022/04/15 01:16:12;;;;;;;24.63;16.30;;;;;;;;;;5053831;28;20202;-75
2022/04/15 01:18:39;;;;;;;23.85;15.98;;;;;;;;;;5053202;28;20176;-73
2022/04/15 01:21:05;;;;;;;20.02;16.23;;;;;;;;;;5051912;28;22068;-74
2022/04/15 01:23:31;;;;;;;25.70;15.90;;;;;;;;;;5053446;28;20276;-73
2022/04/15 01:25:57;;;;;;;22.42;17.10;;;;;;;;;;5053505;28;20907;-73
2022/04/15 01:28:23;;;;;;;21.88;14.38;;;;;;;;;;5053426;28;20549;-74
2022/04/15 01:30:49;;;;;;;19.38;14.43;;;;;;;;;;5053060;28;20559;-73
2022/04/15 01:33:16;;;;;;;20.20;15.13;;;;;;;;;;5053388;28;20170;-73
2022/04/15 01:35:42;;;;;;;20.63;15.20;;;;;;;;;;5053362;28;20171;-74
2022/04/15 01:38:12;;;;;;;25.98;16.58;;;;;;;;;;5053345;28;20203;-73
2022/04/15 01:40:38;;;;;;;21.63;16.65;;;;;;;;;;5053008;28;20193;-74
2022/04/15 01:43:05;;;;;;;22.92;16.38;;;;;;;;;;5053028;28;20289;-73
2022/04/15 01:45:31;;;;;;;21.40;16.13;;;;;;;;;;5053068;28;20187;-73
2022/04/15 01:47:56;;;;;;;25.03;15.50;;;;;;;;;;5053197;28;20188;-72
2022/04/15 01:50:23;;;;;;;22.07;16.37;;;;;;;;;;5052665;28;20470;-72
2022/04/15 01:52:49;;;;;;;31.67;17.55;;;;;;;;;;5052965;28;20431;-73
2022/04/15 01:55:15;;;;;;;25.15;17.60;;;;;;;;;;5053000;28;20549;-74
2022/04/15 01:57:41;;;;;;;22.63;17.10;;;;;;;;;;5052908;28;20174;-74
2022/04/15 02:00:07;;;;;;;25.23;17.75;;;;;;;;;;5053089;28;20412;-74
2022/04/15 02:02:34;;;;;;;22.10;16.75;;;;;;;;;;5052811;28;20523;-75
2022/04/15 02:05:00;;;;;;;23.85;17.27;;;;;;;;;;5053187;28;20194;-76
2022/04/15 02:07:26;;;;;;;23.13;17.30;;;;;;;;;;5052956;28;20258;-72
2022/04/15 02:09:52;;;;;;;27.73;18.00;;;;;;;;;;5052740;28;20240;-74
2022/04/15 02:12:18;;;;;;;25.70;18.50;;;;;;;;;;5052403;28;20441;-74
2022/04/15 02:14:46;;;;;;;26.03;17.60;;;;;;;;;;5052847;28;20423;-73
2022/04/15 02:17:12;;;;;;;27.23;18.00;;;;;;;;;;5052868;28;20453;-75
2022/04/15 02:19:37;;;;;;;22.20;15.70;;;;;;;;;;5051506;28;20523;-75
2022/04/15 02:22:04;;;;;;;22.90;16.73;;;;;;;;;;5052456;28;20442;-75
2022/04/15 02:24:30;;;;;;;24.42;17.65;;;;;;;;;;5052790;28;20857;-74
2022/04/15 02:26:56;;;;;;;26.70;18.05;;;;;;;;;;5052763;28;20191;-74
2022/04/15 02:29:23;;;;;;;25.17;17.33;;;;;;;;;;5052509;28;20198;-73
2022/04/15 02:31:49;;;;;;;24.30;18.10;;;;;;;;;;5054383;28;20278;-74
2022/04/15 02:34:15;;;;;;;23.77;17.70;;;;;;;;;;5056723;28;20613;-74
2022/04/15 02:36:41;;;;;;;20.35;16.20;;;;;;;;;;5056775;28;20594;-75
2022/04/15 02:39:10;;;;;;;24.23;17.27;;;;;;;;;;5056552;28;20179;-75
2022/04/15 02:41:37;;;;;;;21.58;15.60;;;;;;;;;;5056097;28;20869;-75
2022/04/15 02:44:03;;;;;;;21.95;14.88;;;;;;;;;;5056385;28;20172;-71
2022/04/15 02:46:29;;;;;;;18.77;15.05;;;;;;;;;;5056538;28;20177;-76
2022/04/15 02:48:55;;;;;;;18.47;15.03;;;;;;;;;;5056312;28;20194;-72
2022/04/15 02:51:21;;;;;;;18.80;14.90;;;;;;;;;;5055946;28;20568;-76
2022/04/15 02:53:47;;;;;;;30.25;15.80;;;;;;;;;;5056166;28;20840;-75
2022/04/15 02:56:12;;;;;;;23.20;17.03;;;;;;;;;;5056169;28;20187;-71
2022/04/15 02:58:38;;;;;;;24.90;16.33;;;;;;;;;;5056360;28;20414;-74
2022/04/15 03:01:04;;;;;;;23.98;15.93;;;;;;;;;;5055781;28;20905;-75
2022/04/15 03:03:31;;;;;;;21.30;14.70;;;;;;;;;;5056093;28;20198;-71
2022/04/15 03:05:57;;;;;;;19.83;15.07;;;;;;;;;;5056041;28;20184;-73
2022/04/15 03:08:22;;;;;;;26.75;16.20;;;;;;;;;;5054873;28;20213;-75
2022/04/15 03:10:48;;;;;;;27.17;16.50;;;;;;;;;;5055602;28;20216;-76
2022/04/15 03:13:14;;;;;;;21.60;16.50;;;;;;;;;;5056079;28;20404;-75
2022/04/15 03:15:40;;;;;;;21.27;16.63;;;;;;;;;;5055996;28;20406;-75
2022/04/15 03:18:06;;;;;;;31.93;17.03;;;;;;;;;;5055750;28;20494;-73
2022/04/15 03:20:32;;;;;;;28.43;19.43;;;;;;;;;;5054511;28;20830;-76
2022/04/15 03:22:58;;;;;;;30.40;18.87;;;;;;;;;;5054938;28;20444;-73
2022/04/15 03:25:24;;;;;;;27.70;18.77;;;;;;;;;;5056057;28;20412;-72
2022/04/15 03:27:50;;;;;;;24.13;16.37;;;;;;;;;;5056055;28;20251;-74
2022/04/15 03:30:16;;;;;;;32.27;18.70;;;;;;;;;;5055460;28;20465;-71
2022/04/15 03:32:46;;;;;;;27.70;19.70;;;;;;;;;;5055781;28;20422;-73
2022/04/15 03:35:12;;;;;;;28.27;19.15;;;;;;;;;;5055831;28;20544;-72
2022/04/15 03:37:38;;;;;;;23.47;16.87;;;;;;;;;;5054790;28;20171;-75
2022/04/15 03:40:05;;;;;;;25.50;17.65;;;;;;;;;;5055739;28;20428;-74
2022/04/15 03:42:31;;;;;;;27.42;18.48;;;;;;;;;;5054958;28;20714;-73
2022/04/15 03:44:57;;;;;;;24.23;18.10;;;;;;;;;;5055693;28;20207;-74
2022/04/15 03:47:23;;;;;;;28.63;19.33;;;;;;;;;;5055582;28;20245;-74
2022/04/15 03:49:49;;;;;;;25.73;19.87;;;;;;;;;;5055582;28;20545;-75
2022/04/15 03:52:15;;;;;;;27.65;17.88;;;;;;;;;;5054987;28;20463;-74
2022/04/15 03:54:41;;;;;;;27.70;19.07;;;;;;;;;;5055374;28;20211;-75
2022/04/15 03:57:07;;;;;;;25.00;19.70;;;;;;;;;;5055528;28;20755;-73
2022/04/15 03:59:33;;;;;;;23.73;16.97;;;;;;;;;;5054125;28;20287;-72
2022/04/15 04:01:59;;;;;;;24.23;17.47;;;;;;;;;;5055012;28;20434;-73
2022/04/15 04:04:25;;;;;;;25.52;18.00;;;;;;;;;;5055416;28;20418;-74
2022/04/15 04:06:51;;;;;;;26.00;18.80;;;;;;;;;;5055374;28;20595;-72
2022/04/15 04:09:17;;;;;;;29.17;18.20;;;;;;;;;;5053716;28;20467;-75
2022/04/15 04:11:43;;;;;;;28.33;19.67;;;;;;;;;;5054806;28;20437;-74
2022/04/15 04:14:10;;;;;;;28.10;19.47;;;;;;;;;;5055094;28;20535;-73
2022/04/15 04:16:36;;;;;;;25.48;17.30;;;;;;;;;;5054856;28;20417;-76
2022/04/15 04:19:02;;;;;;;26.40;17.10;;;;;;;;;;5053755;28;20178;-76
2022/04/15 04:21:30;;;;;;;31.50;19.37;;;;;;;;;;5053369;28;20477;-75
2022/04/15 04:23:56;;;;;;;31.88;20.35;;;;;;;;;;5054858;28;20781;-74
2022/04/15 04:26:22;;;;;;;25.83;18.67;;;;;;;;;;5053658;28;20188;-74
2022/04/15 04:28:48;;;;;;;24.40;17.93;;;;;;;;;;5053771;28;20410;-71
2022/04/15 04:31:14;;;;;;;24.10;17.80;;;;;;;;;;5053192;28;20836;-74
2022/04/15 04:33:40;;;;;;;30.73;19.27;;;;;;;;;;5054778;28;20492;-73
2022/04/15 04:36:06;;;;;;;31.33;19.70;;;;;;;;;;5054744;28;20663;-73
2022/04/15 04:38:32;;;;;;;29.65;20.83;;;;;;;;;;5054695;28;20438;-74
2022/04/15 04:40:58;;;;;;;33.08;21.05;;;;;;;;;;5054159;28;20256;-75
2022/04/15 04:43:24;;;;;;;32.63;21.53;;;;;;;;;;5054508;28;20178;-76
2022/04/15 04:45:50;;;;;;;28.02;19.92;;;;;;;;;;5054372;28;20404;-74
2022/04/15 04:48:16;;;;;;;32.97;20.13;;;;;;;;;;5054448;28;20663;-75
2022/04/15 04:50:42;;;;;;;33.43;19.37;;;;;;;;;;5053850;28;20197;-75
2022/04/15 04:53:08;;;;;;;30.85;20.85;;;;;;;;;;5052594;28;20528;-74
2022/04/15 04:55:34;;;;;;;32.63;21.93;;;;;;;;;;5053733;28;20610;-73
2022/04/15 04:58:00;;;;;;;36.55;22.27;;;;;;;;;;5054094;28;20497;-71
2022/04/15 05:00:26;;;;;;;35.67;24.00;;;;;;;;;;5053836;28;20261;-74
2022/04/15 05:02:52;;;;;;;36.43;23.90;;;;;;;;;;5053877;28;20437;-73
2022/04/15 05:05:18;;;;;;;46.88;25.85;;;;;;;;;;5054057;28;20400;-73
2022/04/15 05:07:44;;;;;;;33.20;23.67;;;;;;;;;;5054089;28;20191;-72
2022/04/15 05:10:10;;;;;;;38.80;24.70;;;;;;;;;;5053492;28;20464;-73
2022/04/15 05:12:36;;;;;;;34.50;25.38;;;;;;;;;;5053810;28;20929;-73
2022/04/15 05:15:02;;;;;;;34.47;24.45;;;;;;;;;;5053930;28;20189;-73
2022/04/15 05:17:28;;;;;;;32.85;21.92;;;;;;;;;;5054178;28;20177;-74
2022/04/15 05:19:54;;;;;;;44.28;26.75;;;;;;;;;;5054096;28;20187;-75
2022/04/15 05:22:22;;;;;;;44.23;25.80;;;;;;;;;;5053517;28;20554;-73
2022/04/15 05:24:48;;;;;;;39.05;28.13;;;;;;;;;;5053874;28;20425;-73
2022/04/15 05:27:14;;;;;;;49.28;30.40;;;;;;;;;;5053551;28;20167;-72
2022/04/15 05:29:40;;;;;;;43.27;27.40;;;;;;;;;;5053592;28;20314;-75
2022/04/15 05:32:06;;;;;;;40.00;27.77;;;;;;;;;;5053284;28;20425;-72
2022/04/15 05:34:32;;;;;;;51.10;27.63;;;;;;;;;;5053658;28;20479;-72
2022/04/15 05:36:58;;;;;;;43.03;29.40;;;;;;;;;;5053482;28;20176;-75
2022/04/15 05:39:24;;;;;;;51.23;27.73;;;;;;;;;;5053508;28;20629;-74
2022/04/15 05:41:50;;;;;;;38.60;27.57;;;;;;;;;;5053249;28;20434;-73
2022/04/15 05:44:16;;;;;;;36.17;25.63;;;;;;;;;;5053589;28;20440;-73
2022/04/15 05:46:42;;;;;;;39.65;23.77;;;;;;;;;;5053411;28;20418;-75
2022/04/15 05:49:13;;;;;;;42.03;25.45;;;;;;;;;;5053180;28;20211;-74
2022/04/15 05:51:39;;;;;;;31.70;24.48;;;;;;;;;;5051692;28;20203;-73
2022/04/15 05:54:05;;;;;;;37.53;27.45;;;;;;;;;;5053350;28;20585;-73
2022/04/15 05:56:31;;;;;;;34.78;25.33;;;;;;;;;;5052128;28;20636;-76
2022/04/15 05:58:57;;;;;;;37.37;25.60;;;;;;;;;;5053266;28;20189;-73
2022/04/15 06:01:23;;;;;;;40.57;26.80;;;;;;;;;;5052624;28;20433;-73
2022/04/15 06:03:49;;;;;;;41.27;27.10;;;;;;;;;;5053214;28;20874;-73
2022/04/15 06:06:15;;;;;;;37.47;26.58;;;;;;;;;;5051817;28;20421;-75
2022/04/15 06:08:42;;;;;;;46.30;26.97;;;;;;;;;;5053306;28;20632;-72
2022/04/15 06:11:08;;;;;;;44.33;27.63;;;;;;;;;;5052684;28;20469;-72
2022/04/15 06:13:34;;;;;;;39.38;28.30;;;;;;;;;;5053158;28;20175;-72
2022/04/15 06:16:00;;;;;;;44.40;29.23;;;;;;;;;;5052070;28;20216;-76
2022/04/15 06:18:29;;;;;;;46.25;30.00;;;;;;;;;;5051764;28;20449;-74
2022/04/15 06:20:55;;;;;;;41.90;29.65;;;;;;;;;;5052689;28;20167;-75
2022/04/15 06:23:21;;;;;;;46.08;29.80;;;;;;;;;;5052914;28;20177;-74
2022/04/15 06:25:47;;;;;;;45.67;29.27;;;;;;;;;;5051861;28;20178;-73
2022/04/15 06:28:13;;;;;;;49.42;31.40;;;;;;;;;;5051700;28;20188;-75
2022/04/15 06:30:39;;;;;;;49.00;30.58;;;;;;;;;;5052415;28;20287;-74
2022/04/15 06:33:08;;;;;;;51.33;32.80;;;;;;;;;;5052872;28;20231;-73
2022/04/15 06:35:34;;;;;;;58.78;36.00;;;;;;;;;;5051577;28;20174;-74
2022/04/15 06:38:00;;;;;;;57.30;40.47;;;;;;;;;;5052943;28;20583;-74
2022/04/15 06:40:26;;;;;;;73.90;41.90;;;;;;;;;;5052666;28;20213;-75
2022/04/15 06:42:52;;;;;;;69.60;44.63;;;;;;;;;;5052741;28;20224;-72
2022/04/15 06:45:18;;;;;;;73.27;43.23;;;;;;;;;;5052698;28;20408;-72
2022/04/15 06:47:44;;;;;;;62.30;42.20;;;;;;;;;;5052627;28;20418;-72
2022/04/15 06:50:10;;;;;;;67.83;41.57;;;;;;;;;;5052471;28;20519;-76
2022/04/15 06:52:36;;;;;;;61.87;38.37;;;;;;;;;;5052636;28;20427;-74
2022/04/15 06:55:03;;;;;;;54.83;39.50;;;;;;;;;;5052591;28;20918;-73
2022/04/15 06:57:31;;;;;;;51.38;37.60;;;;;;;;;;5052509;28;20419;-76
2022/04/15 06:59:57;;;;;;;53.72;31.90;;;;;;;;;;5051334;28;20193;-74
2022/04/15 07:02:23;;;;;;;44.50;31.87;;;;;;;;;;5052653;28;20200;-75
2022/04/15 07:04:49;;;;;;;46.88;32.50;;;;;;;;;;5052601;28;20411;-72
2022/04/15 07:07:15;;;;;;;41.03;31.40;;;;;;;;;;5052854;28;20292;-74
2022/04/15 07:09:41;;;;;;;41.33;27.93;;;;;;;;;;5052396;28;20474;-72
2022/04/15 07:12:07;;;;;;;32.70;27.07;;;;;;;;;;5052075;28;20518;-76
2022/04/15 07:14:33;;;;;;;34.90;26.48;;;;;;;;;;5052458;28;20416;-74
2022/04/15 07:17:00;;;;;;;32.53;26.47;;;;;;;;;;5053225;28;20181;-75
2022/04/15 07:19:27;;;;;;;37.35;27.75;;;;;;;;;;5056191;28;20406;-72
2022/04/15 07:21:53;;;;;;;35.20;28.65;;;;;;;;;;5055854;28;20196;-75
2022/04/15 07:24:20;;;;;;;36.07;26.37;;;;;;;;;;5056299;28;20253;-73
2022/04/15 07:26:46;;;;;;;32.47;25.20;;;;;;;;;;5056078;28;20408;-76
2022/04/15 07:29:12;;;;;;;32.67;26.15;;;;;;;;;;5055787;28;20690;-72
2022/04/15 07:31:40;;;;;;;36.30;30.65;;;;;;;;;;5055429;28;20243;-75
2022/04/15 07:34:06;;;;;;;43.17;31.20;;;;;;;;;;5055671;28;20208;-73
2022/04/15 07:39:03;;;;;;;38.87;30.90;;;;;;;;;;5055743;28;20834;-74
2022/04/15 07:41:29;;;;;;;49.20;35.90;;;;;;;;;;5055190;28;20463;-74
2022/04/15 07:43:54;;;;;;;38.73;32.70;;;;;;;;;;5055439;28;20404;-71
2022/04/15 07:46:20;;;;;;;41.33;31.67;;;;;;;;;;5055475;28;20778;-73
2022/04/15 07:48:46;;;;;;;46.10;32.13;;;;;;;;;;5055438;28;20428;-72
2022/04/15 07:51:12;;;;;;;37.20;30.17;;;;;;;;;;5055018;28;20482;-72
2022/04/15 07:53:38;;;;;;;38.27;29.87;;;;;;;;;;5055349;28;20384;-74
2022/04/15 07:56:05;;;;;;;37.97;30.50;;;;;;;;;;5055153;28;20408;-75
2022/04/15 07:58:31;;;;;;;40.63;32.83;;;;;;;;;;5055180;28;20431;-71
2022/04/15 08:01:00;;;;;;;44.37;35.27;;;;;;;;;;5054802;28;20412;-72
2022/04/15 08:03:27;;;;;;;41.20;33.47;;;;;;;;;;5055096;28;20412;-72
2022/04/15 08:05:53;;;;;;;48.93;36.43;;;;;;;;;;5055143;28;20415;-71
2022/04/15 08:08:19;;;;;;;56.90;41.80;;;;;;;;;;5054879;28;20759;-72
2022/04/15 08:10:45;;;;;;;79.23;48.70;;;;;;;;;;5054570;28;20475;-73
2022/04/15 08:13:11;;;;;;;90.43;57.17;;;;;;;;;;5055080;28;20728;-71
2022/04/15 08:15:37;;;;;;;92.47;58.30;;;;;;;;;;5055174;28;20418;-70
2022/04/15 08:18:03;;;;;;;97.90;55.33;;;;;;;;;;5055129;28;20412;-75
2022/04/15 08:20:29;;;;;;;105.33;61.33;;;;;;;;;;5054516;28;20434;-74
2022/04/15 08:22:55;;;;;;;108.80;61.17;;;;;;;;;;5054761;28;20436;-73
2022/04/15 08:25:21;;;;;;;116.80;61.00;;;;;;;;;;5054798;28;20416;-75
2022/04/15 08:27:47;;;;;;;120.60;62.87;;;;;;;;;;5053552;28;20485;-75
2022/04/15 08:30:13;;;;;;;132.90;63.77;;;;;;;;;;5054304;28;20468;-75
2022/04/15 08:32:39;;;;;;;139.00;65.23;;;;;;;;;;5054505;28;20446;-73
2022/04/15 08:35:06;;;;;;;119.30;60.00;;;;;;;;;;5054664;28;20525;-74
2022/04/15 08:37:33;;;;;;;155.17;62.57;;;;;;;;;;5054572;28;20721;-74
2022/04/15 08:39:59;;;;;;;134.23;60.17;;;;;;;;;;5054598;28;20492;-72
2022/04/15 08:42:25;;;;;;;133.27;60.97;;;;;;;;;;5054218;28;20280;-74
2022/04/15 08:44:51;;;;;;;144.48;64.18;;;;;;;;;;5054511;28;20443;-72
2022/04/15 08:47:18;;;;;;;139.00;61.83;;;;;;;;;;5054622;28;20180;-76
2022/04/15 08:49:45;;;;;;;122.53;57.93;;;;;;;;;;5054279;28;20243;-74
2022/04/15 08:52:12;;;;;;;131.13;56.95;;;;;;;;;;5054009;28;20449;-71
2022/04/15 08:54:38;;;;;;;133.10;56.70;;;;;;;;;;5052844;28;20170;-75
2022/04/15 08:57:05;;;;;;;138.97;58.73;;;;;;;;;;5054089;28;20178;-72
2022/04/15 08:59:31;;;;;;;125.13;56.72;;;;;;;;;;5054000;28;20412;-75
2022/04/15 09:01:57;;;;;;;128.50;58.67;;;;;;;;;;5053725;28;20247;-71
2022/04/15 09:04:24;;;;;;;139.20;58.00;;;;;;;;;;5053981;28;20185;-72
2022/04/15 09:06:56;;;;;;;109.75;54.10;;;;;;;;;;5053966;28;20255;-75
2022/04/15 09:09:29;;;;;;;122.45;55.58;;;;;;;;;;5053754;28;20272;-74
2022/04/15 09:11:56;;;;;;;122.38;56.92;;;;;;;;;;5053552;28;20197;-75
2022/04/15 09:14:23;;;;;;;124.72;58.90;;;;;;;;;;5052719;28;20181;-73
2022/04/15 09:16:49;;;;;;;128.60;56.43;;;;;;;;;;5053733;28;20209;-72
2022/04/15 09:19:15;;;;;;;129.33;59.77;;;;;;;;;;5053793;28;20443;-75
2022/04/15 09:21:55;;;;;;;124.95;59.17;;;;;;;;;;5052217;28;20510;-75
2022/04/15 09:24:31;;;;;;;123.90;55.40;;;;;;;;;;5053588;28;20216;-74
2022/04/15 09:26:57;;;;;;;110.53;53.10;;;;;;;;;;5053719;28;20578;-73
2022/04/15 09:29:25;;;;;;;102.73;53.77;;;;;;;;;;5053818;28;20499;-72
2022/04/15 09:31:55;;;;;;;83.37;43.17;;;;;;;;;;5053144;28;20566;-75
2022/04/15 09:34:21;;;;;;;76.23;39.80;;;;;;;;;;5052608;28;20934;-72
2022/04/15 09:36:47;;;;;;;75.33;39.47;;;;;;;;;;5053811;28;20445;-72
2022/04/15 09:39:14;;;;;;;61.43;34.80;;;;;;;;;;5053475;28;20412;-72
2022/04/15 09:41:51;;;;;;;50.20;31.83;;;;;;;;;;5052716;28;20922;-73
2022/04/15 09:44:17;;;;;;;41.20;27.90;;;;;;;;;;5053488;28;20411;-73
2022/04/15 09:46:44;;;;;;;40.33;29.90;;;;;;;;;;5053291;28;20408;-76
2022/04/15 09:49:11;;;;;;;38.90;26.67;;;;;;;;;;5053110;28;20390;-75
2022/04/15 09:51:40;;;;;;;31.30;23.77;;;;;;;;;;5052875;28;20856;-72
2022/04/15 09:54:08;;;;;;;29.73;21.80;;;;;;;;;;5053232;28;20446;-74
2022/04/15 09:56:35;;;;;;;26.10;20.80;;;;;;;;;;5053289;28;20416;-73
2022/04/15 09:59:08;;;;;;;24.67;21.87;;;;;;;;;;5051810;28;20499;-72
2022/04/15 10:01:35;;;;;;;22.30;19.00;;;;;;;;;;5052795;28;20507;-73
2022/04/15 10:04:01;;;;;;;28.43;20.03;;;;;;;;;;5053087;28;20486;-75
2022/04/15 10:06:27;;;;;;;22.13;19.20;;;;;;;;;;5053067;28;20558;-72
2022/04/15 10:08:54;;;;;;;21.93;19.60;;;;;;;;;;5052859;28;20394;-72
2022/04/15 10:11:20;;;;;;;22.13;19.93;;;;;;;;;;5052507;28;20541;-75
2022/04/15 10:13:46;;;;;;;21.37;18.90;;;;;;;;;;5053080;28;20403;-75
2022/04/15 10:16:15;;;;;;;23.63;21.13;;;;;;;;;;5052866;28;20438;-73
2022/04/15 10:18:41;;;;;;;23.43;21.13;;;;;;;;;;5053213;28;20415;-76
2022/04/15 10:21:08;;;;;;;21.93;19.57;;;;;;;;;;5052671;28;20428;-75
2022/04/15 10:23:34;;;;;;;21.33;19.13;;;;;;;;;;5053049;28;20445;-73
2022/04/15 10:26:03;;;;;;;20.33;18.20;;;;;;;;;;5053068;28;20474;-74
2022/04/15 10:28:46;;;;;;;21.53;19.33;;;;;;;;;;5052968;28;20499;-72
2022/04/15 10:31:14;;;;;;;20.77;18.40;;;;;;;;;;5052324;28;20464;-75
2022/04/15 10:33:41;;;;;;;22.47;18.60;;;;;;;;;;5052817;28;20511;-75
2022/04/15 10:36:23;;;;;;;20.50;18.40;;;;;;;;;;5051694;28;20416;-76
2022/04/15 10:39:06;;;;;;;19.10;17.30;;;;;;;;;;5051623;28;20412;-73
2022/04/15 10:41:51;;;;;;;20.20;18.40;;;;;;;;;;5052230;28;20407;-72
2022/04/15 10:44:23;;;;;;;19.07;17.07;;;;;;;;;;5052761;28;20416;-74
2022/04/15 10:46:49;;;;;;;16.60;15.07;;;;;;;;;;5052665;28;20413;-71
2022/04/15 10:49:26;;;;;;;13.97;12.67;;;;;;;;;;5052746;28;20435;-73
2022/04/15 10:52:03;;;;;;;12.47;11.27;;;;;;;;;;5052954;28;20436;-76
2022/04/15 10:54:30;;;;;;;14.10;12.80;;;;;;;;;;5056704;28;20383;-76
2022/04/15 10:57:03;;;;;;;15.73;14.23;;;;;;;;;;5056519;28;20414;-74
2022/04/15 11:02:21;;;;;;;16.47;14.97;;;;;;;;;;5056236;28;20773;-75
2022/04/15 11:04:51;;;;;;;15.50;14.07;;;;;;;;;;5056543;28;20383;-75
2022/04/15 11:07:24;;;;;;;14.90;13.50;;;;;;;;;;5054924;28;20960;-73
2022/04/15 11:09:50;;;;;;;13.63;12.33;;;;;;;;;;5056143;28;20457;-75
2022/04/15 11:12:29;;;;;;;15.57;14.13;;;;;;;;;;5055911;28;20402;-75
2022/04/15 11:14:55;;;;;;;14.43;13.23;;;;;;;;;;5056379;28;20768;-73
2022/04/15 11:17:36;;;;;;;14.23;12.63;;;;;;;;;;5056316;28;20750;-75
2022/04/15 11:20:05;;;;;;;12.17;11.07;;;;;;;;;;5056108;28;20411;-75
2022/04/15 11:22:31;;;;;;;12.97;11.63;;;;;;;;;;5054543;28;20755;-74
2022/04/15 11:24:57;;;;;;;9.97;8.97;;;;;;;;;;5056165;28;20467;-73
2022/04/15 11:27:24;;;;;;;11.23;10.07;;;;;;;;;;5055777;28;20904;-74
2022/04/15 11:29:51;;;;;;;11.97;10.70;;;;;;;;;;5055912;28;20835;-73
2022/04/15 11:32:17;;;;;;;12.90;11.63;;;;;;;;;;5055464;28;20399;-73
2022/04/15 11:34:43;;;;;;;12.33;11.10;;;;;;;;;;5055854;28;20419;-75
2022/04/15 11:37:09;;;;;;;11.57;10.43;;;;;;;;;;5055679;28;20413;-75
2022/04/15 11:39:35;;;;;;;11.60;10.07;;;;;;;;;;5055673;28;20415;-72
2022/04/15 11:42:06;;;;;;;12.27;10.10;;;;;;;;;;5055143;28;20492;-74
2022/04/15 11:44:32;;;;;;;11.60;10.30;;;;;;;;;;5055522;28;20771;-74
2022/04/15 11:49:45;;;;;;;13.50;10.33;;;;;;;;;;5055630;28;21026;-74
2022/04/15 11:52:11;;;;;;;12.00;9.60;;;;;;;;;;5053704;28;20417;-72
2022/04/15 11:54:38;;;;;;;13.53;10.60;;;;;;;;;;5055637;28;20474;-72
2022/04/15 11:57:04;;;;;;;11.37;10.07;;;;;;;;;;5055379;28;20423;-75
2022/04/15 11:59:40;;;;;;;11.53;9.97;;;;;;;;;;5055123;28;20383;-75
2022/04/15 12:02:06;;;;;;;10.40;9.40;;;;;;;;;;5054614;28;20411;-73
2022/04/15 12:04:32;;;;;;;12.90;10.43;;;;;;;;;;5054908;28;20448;-75
2022/04/15 12:06:59;;;;;;;14.53;10.70;;;;;;;;;;5055238;28;20819;-73
2022/04/15 12:09:26;;;;;;;12.73;9.80;;;;;;;;;;5054967;28;20399;-73
2022/04/15 12:11:52;;;;;;;12.73;10.50;;;;;;;;;;5054563;28;20402;-72
2022/04/15 12:14:18;;;;;;;13.47;10.00;;;;;;;;;;5053781;28;20647;-75
2022/04/15 12:16:46;;;;;;;10.97;9.87;;;;;;;;;;5055104;28;20416;-73
2022/04/15 12:19:12;;;;;;;12.17;10.27;;;;;;;;;;5055071;28;20375;-73
2022/04/15 12:21:39;;;;;;;13.50;12.10;;;;;;;;;;5054629;28;20474;-74
2022/04/15 12:24:06;;;;;;;14.30;11.73;;;;;;;;;;5054815;28;20380;-73
2022/04/15 12:26:42;;;;;;;14.50;13.30;;;;;;;;;;5054879;28;20872;-72
2022/04/15 12:31:53;;;;;;;13.67;12.47;;;;;;;;;;5054775;28;20406;-73
2022/04/15 12:34:30;;;;;;;12.87;11.47;;;;;;;;;;5054729;28;20768;-73
2022/04/15 12:36:56;;;;;;;13.43;11.90;;;;;;;;;;5054873;28;20387;-74
2022/04/15 12:39:22;;;;;;;14.50;12.47;;;;;;;;;;5054701;28;20376;-72
2022/04/15 12:41:48;;;;;;;14.93;13.43;;;;;;;;;;5054311;28;20726;-75
2022/04/15 12:44:15;;;;;;;16.50;14.73;;;;;;;;;;5054485;28;20371;-74
2022/04/15 12:46:45;;;;;;;15.13;13.63;;;;;;;;;;5054455;28;20442;-73
2022/04/15 12:49:27;;;;;;;17.07;14.63;;;;;;;;;;5054684;28;20928;-75
2022/04/15 12:51:58;;;;;;;13.53;12.03;;;;;;;;;;5054085;28;20501;-74
2022/04/15 12:54:24;;;;;;;15.17;13.57;;;;;;;;;;5052723;28;20779;-73
2022/04/15 12:56:54;;;;;;;13.80;12.40;;;;;;;;;;5054426;28;20404;-75
2022/04/15 12:59:20;;;;;;;15.57;14.03;;;;;;;;;;5054323;28;20863;-74
2022/04/15 13:01:46;;;;;;;17.80;16.10;;;;;;;;;;5053747;28;20495;-75
2022/04/15 13:04:15;;;;;;;18.27;16.57;;;;;;;;;;5052742;28;20497;-74
2022/04/15 13:06:41;;;;;;;18.97;17.07;;;;;;;;;;5054095;28;20766;-74
2022/04/15 13:09:07;;;;;;;18.77;16.77;;;;;;;;;;5053934;28;20391;-74
2022/04/15 13:11:34;;;;;;;19.30;17.40;;;;;;;;;;5053542;28;20464;-72
2022/04/15 13:14:00;;;;;;;20.50;18.30;;;;;;;;;;5053876;28;20491;-74
2022/04/15 13:16:26;;;;;;;17.63;15.73;;;;;;;;;;5053402;28;20873;-73
2022/04/15 13:18:54;;;;;;;18.57;16.87;;;;;;;;;;5054009;28;20439;-75
2022/04/15 13:21:20;;;;;;;16.70;15.10;;;;;;;;;;5053364;28;20467;-74
2022/04/15 13:23:46;;;;;;;19.23;17.33;;;;;;;;;;5053955;28;20426;-75
2022/04/15 13:26:12;;;;;;;18.20;16.30;;;;;;;;;;5053857;28;20418;-74
2022/04/15 13:28:39;;;;;;;19.17;16.70;;;;;;;;;;5053513;28;20498;-73
2022/04/15 13:31:05;;;;;;;19.47;17.57;;;;;;;;;;5053126;28;20509;-74
2022/04/15 13:33:32;;;;;;;18.60;16.23;;;;;;;;;;5053553;28;20786;-76
2022/04/15 13:35:58;;;;;;;18.03;16.23;;;;;;;;;;5053713;28;20407;-74
2022/04/15 13:38:24;;;;;;;19.20;17.33;;;;;;;;;;5053923;28;20383;-75
2022/04/15 13:40:50;;;;;;;18.87;16.87;;;;;;;;;;5051832;28;20534;-76
2022/04/15 13:43:16;;;;;;;23.53;21.17;;;;;;;;;;5053818;28;20391;-74
2022/04/15 13:45:46;;;;;;;21.60;19.30;;;;;;;;;;5035899;28;20465;-73
2022/04/15 13:48:12;;;;;;;23.00;20.80;;;;;;;;;;5053489;28;20416;-74
2022/04/15 13:50:38;;;;;;;24.67;22.23;;;;;;;;;;5052826;28;20455;-75
2022/04/15 13:58:33;;;;;;;23.37;21.07;;;;;;;;;;5053444;28;20505;-73
2022/04/15 14:01:00;;;;;;;24.37;21.97;;;;;;;;;;5052657;28;20420;-75
2022/04/15 14:03:26;;;;;;;22.93;20.43;;;;;;;;;;5053139;28;20462;-75
2022/04/15 14:05:52;;;;;;;22.83;20.53;;;;;;;;;;5053245;28;20383;-74
2022/04/15 14:08:18;;;;;;;22.27;20.00;;;;;;;;;;5053180;28;20412;-75
2022/04/15 14:10:44;;;;;;;24.70;20.87;;;;;;;;;;5052555;28;20439;-73
2022/04/15 14:13:12;;;;;;;21.47;19.03;;;;;;;;;;5052828;28;20438;-74
2022/04/15 14:15:38;;;;;;;24.17;21.77;;;;;;;;;;5053110;28;20375;-74
2022/04/15 14:18:04;;;;;;;23.53;21.03;;;;;;;;;;5051837;28;20841;-75
2022/04/15 14:20:30;;;;;;;23.40;20.90;;;;;;;;;;5052725;28;20416;-74
2022/04/15 14:22:56;;;;;;;21.53;19.40;;;;;;;;;;5052800;28;20760;-75
2022/04/15 14:25:22;;;;;;;22.53;20.33;;;;;;;;;;5052924;28;20395;-74
2022/04/15 14:27:48;;;;;;;24.47;22.00;;;;;;;;;;5056859;28;20406;-73
2022/04/15 14:30:14;;;;;;;20.90;18.70;;;;;;;;;;5056768;28;20464;-74
2022/04/15 14:32:40;;;;;;;22.00;19.90;;;;;;;;;;5056987;28;20519;-75